Airports

 

 

Airport Name Latest METAR Visual Conditions
Atlantic City Int. (ACY) KACY 271754Z 17010G22KT 10SM FEW014 SCT024 BKN030 24/20 A2991 RMK AO2 SLP128 T02390200 10256 20178 58016 MVFR
Baltimore International Airport (BWI) KBWI 271754Z 14005KT 10SM -RA FEW090 OVC110 21/18 A2983 RMK AO2 PK WND 25037/1658 LTG DSNT NE-SE RAB01 TSE39 SLP098 TS MOVD E P0014 60014 T02060183 10261 20206 56021 VFR
Washington National Airport (DCA) KDCA 271752Z 14004KT 10SM -RA BKN120 21/18 A2982 RMK AO2 PRESFR SLP097 P0002 60015 T02060183 10261 20200 58016 VFR
Dulles International Airport (IAD) KIAD 271752Z 17006KT 6SM BR BKN007 BKN015 21/19 A2984 RMK AO2 RAB1654E27 SLP101 P0002 60023 T02060189 10244 20200 58009 IFR
Norfolk International Airport (ORF) KORF 271751Z 19009G18KT 5SM RA BR FEW038 BKN090 OVC110 21/20 A2994 RMK AO2 PK WND 21028/1652 WSHFT 1649 RAB1653 SLP138 P0040 60040 T02110200 10283 20206 55000 MVFR
Raleigh International Airport (RDU) KRDU 271751Z 22011G19KT 10SM BKN015 BKN033 BKN150 OVC250 25/21 A2988 RMK AO2 RAB14E29 SLP112 P0000 60109 T02500211 10256 20200 58018 MVFR
Richmond International Airport (RIC) KRIC 271754Z 16008KT 10SM -RA FEW015 SCT080 OVC120 20/19 A2987 RMK AO2 SLP119 P0011 60047 T02000189 10278 20189 58010 $ VFR
Roanoke Regional Airport (ROA) KROA 271754Z VRB04KT 10SM FEW055 24/15 A2986 RMK AO2 SLP102 60019 T02390150 10239 20167 58021 VFR